sensor_id;sensor_type;location;lat;lon;timestamp;P1;durP1;ratioP1;P2;durP2;ratioP2
22557;SDS011;11445;53.816;8.902;2022-09-09T00:01:43;37.33;;;15.98;;
22557;SDS011;11445;53.816;8.902;2022-09-09T00:04:20;24.65;;;14.82;;
22557;SDS011;11445;53.816;8.902;2022-09-09T00:06:56;34.88;;;15.85;;
22557;SDS011;11445;53.816;8.902;2022-09-09T00:09:30;30.92;;;15.45;;
22557;SDS011;11445;53.816;8.902;2022-09-09T00:12:05;23.45;;;15.40;;
22557;SDS011;11445;53.816;8.902;2022-09-09T00:14:42;30.45;;;14.15;;
22557;SDS011;11445;53.816;8.902;2022-09-09T00:17:17;33.67;;;15.00;;
22557;SDS011;11445;53.816;8.902;2022-09-09T00:19:58;27.42;;;13.77;;
22557;SDS011;11445;53.816;8.902;2022-09-09T00:22:29;37.20;;;14.18;;
22557;SDS011;11445;53.816;8.902;2022-09-09T00:24:58;35.85;;;15.02;;
22557;SDS011;11445;53.816;8.902;2022-09-09T00:27:37;35.50;;;15.40;;
22557;SDS011;11445;53.816;8.902;2022-09-09T00:30:14;22.65;;;14.68;;
22557;SDS011;11445;53.816;8.902;2022-09-09T00:32:45;22.10;;;14.43;;
22557;SDS011;11445;53.816;8.902;2022-09-09T00:35:15;25.35;;;16.13;;
22557;SDS011;11445;53.816;8.902;2022-09-09T00:37:45;19.52;;;14.82;;
22557;SDS011;11445;53.816;8.902;2022-09-09T00:40:18;21.65;;;14.48;;
22557;SDS011;11445;53.816;8.902;2022-09-09T00:42:52;24.40;;;15.65;;
22557;SDS011;11445;53.816;8.902;2022-09-09T00:45:38;20.05;;;13.75;;
22557;SDS011;11445;53.816;8.902;2022-09-09T00:48:18;20.90;;;14.65;;
22557;SDS011;11445;53.816;8.902;2022-09-09T00:50:55;20.42;;;13.68;;
22557;SDS011;11445;53.816;8.902;2022-09-09T00:53:29;31.20;;;14.77;;
22557;SDS011;11445;53.816;8.902;2022-09-09T00:56:07;22.52;;;13.95;;
22557;SDS011;11445;53.816;8.902;2022-09-09T00:58:40;20.85;;;14.95;;
22557;SDS011;11445;53.816;8.902;2022-09-09T01:01:10;19.65;;;14.48;;
22557;SDS011;11445;53.816;8.902;2022-09-09T01:03:40;20.88;;;14.98;;
22557;SDS011;11445;53.816;8.902;2022-09-09T01:06:19;23.92;;;14.80;;
22557;SDS011;11445;53.816;8.902;2022-09-09T01:09:00;21.30;;;14.70;;
22557;SDS011;11445;53.816;8.902;2022-09-09T01:11:41;18.90;;;13.57;;
22557;SDS011;11445;53.816;8.902;2022-09-09T01:14:30;19.88;;;13.98;;
22557;SDS011;11445;53.816;8.902;2022-09-09T01:17:09;19.92;;;13.52;;
22557;SDS011;11445;53.816;8.902;2022-09-09T01:19:45;21.05;;;14.02;;
22557;SDS011;11445;53.816;8.902;2022-09-09T01:22:26;21.80;;;14.00;;
22557;SDS011;11445;53.816;8.902;2022-09-09T01:27:52;20.58;;;13.77;;
22557;SDS011;11445;53.816;8.902;2022-09-09T01:30:22;20.60;;;14.18;;
22557;SDS011;11445;53.816;8.902;2022-09-09T01:32:50;28.42;;;15.55;;
22557;SDS011;11445;53.816;8.902;2022-09-09T01:35:23;20.50;;;14.60;;
22557;SDS011;11445;53.816;8.902;2022-09-09T01:37:57;25.95;;;15.88;;
22557;SDS011;11445;53.816;8.902;2022-09-09T01:40:25;25.40;;;15.77;;
22557;SDS011;11445;53.816;8.902;2022-09-09T01:42:54;27.10;;;16.13;;
22557;SDS011;11445;53.816;8.902;2022-09-09T01:45:22;29.48;;;16.90;;
22557;SDS011;11445;53.816;8.902;2022-09-09T01:47:51;28.35;;;16.92;;
22557;SDS011;11445;53.816;8.902;2022-09-09T01:50:19;28.45;;;17.40;;
22557;SDS011;11445;53.816;8.902;2022-09-09T01:52:48;25.52;;;16.92;;
22557;SDS011;11445;53.816;8.902;2022-09-09T01:55:18;26.13;;;16.15;;
22557;SDS011;11445;53.816;8.902;2022-09-09T01:57:56;27.33;;;17.35;;
22557;SDS011;11445;53.816;8.902;2022-09-09T02:00:37;28.23;;;17.15;;
22557;SDS011;11445;53.816;8.902;2022-09-09T02:03:13;26.95;;;17.60;;
22557;SDS011;11445;53.816;8.902;2022-09-09T02:05:49;25.98;;;17.58;;
22557;SDS011;11445;53.816;8.902;2022-09-09T02:08:23;25.38;;;16.58;;
22557;SDS011;11445;53.816;8.902;2022-09-09T02:10:56;29.60;;;16.58;;
22557;SDS011;11445;53.816;8.902;2022-09-09T02:13:29;26.40;;;16.25;;
22557;SDS011;11445;53.816;8.902;2022-09-09T02:16:00;28.17;;;15.60;;
22557;SDS011;11445;53.816;8.902;2022-09-09T02:18:34;25.70;;;15.40;;
22557;SDS011;11445;53.816;8.902;2022-09-09T02:21:04;24.08;;;16.60;;
22557;SDS011;11445;53.816;8.902;2022-09-09T02:23:33;33.33;;;16.27;;
22557;SDS011;11445;53.816;8.902;2022-09-09T02:26:01;23.48;;;16.67;;
22557;SDS011;11445;53.816;8.902;2022-09-09T02:28:31;25.35;;;15.82;;
22557;SDS011;11445;53.816;8.902;2022-09-09T02:31:01;25.08;;;16.52;;
22557;SDS011;11445;53.816;8.902;2022-09-09T02:33:28;24.52;;;16.10;;
22557;SDS011;11445;53.816;8.902;2022-09-09T02:36:00;31.80;;;17.00;;
22557;SDS011;11445;53.816;8.902;2022-09-09T02:38:34;26.95;;;17.85;;
22557;SDS011;11445;53.816;8.902;2022-09-09T02:41:04;28.58;;;17.13;;
22557;SDS011;11445;53.816;8.902;2022-09-09T02:43:34;32.22;;;17.00;;
22557;SDS011;11445;53.816;8.902;2022-09-09T02:46:03;26.83;;;17.63;;
22557;SDS011;11445;53.816;8.902;2022-09-09T02:48:41;27.83;;;17.52;;
22557;SDS011;11445;53.816;8.902;2022-09-09T02:51:18;30.58;;;17.02;;
22557;SDS011;11445;53.816;8.902;2022-09-09T02:53:53;27.88;;;17.38;;
22557;SDS011;11445;53.816;8.902;2022-09-09T02:56:27;34.90;;;16.88;;
22557;SDS011;11445;53.816;8.902;2022-09-09T02:59:02;27.40;;;17.08;;
22557;SDS011;11445;53.816;8.902;2022-09-09T03:01:30;26.30;;;17.17;;
22557;SDS011;11445;53.816;8.902;2022-09-09T03:03:57;23.50;;;16.92;;
22557;SDS011;11445;53.816;8.902;2022-09-09T03:06:24;21.48;;;15.32;;
22557;SDS011;11445;53.816;8.902;2022-09-09T03:08:52;26.20;;;15.52;;
22557;SDS011;11445;53.816;8.902;2022-09-09T03:11:19;26.23;;;15.77;;
22557;SDS011;11445;53.816;8.902;2022-09-09T03:13:46;26.90;;;16.92;;
22557;SDS011;11445;53.816;8.902;2022-09-09T03:16:15;25.48;;;16.02;;
22557;SDS011;11445;53.816;8.902;2022-09-09T03:18:42;26.35;;;16.42;;
22557;SDS011;11445;53.816;8.902;2022-09-09T03:21:11;26.40;;;16.95;;
22557;SDS011;11445;53.816;8.902;2022-09-09T03:23:38;29.23;;;17.83;;
22557;SDS011;11445;53.816;8.902;2022-09-09T03:26:05;30.58;;;16.95;;
22557;SDS011;11445;53.816;8.902;2022-09-09T03:28:33;28.55;;;17.60;;
22557;SDS011;11445;53.816;8.902;2022-09-09T03:31:00;32.63;;;17.27;;
22557;SDS011;11445;53.816;8.902;2022-09-09T03:33:29;27.25;;;17.40;;
22557;SDS011;11445;53.816;8.902;2022-09-09T03:35:57;26.88;;;18.25;;
22557;SDS011;11445;53.816;8.902;2022-09-09T03:38:24;29.67;;;17.55;;
22557;SDS011;11445;53.816;8.902;2022-09-09T03:40:51;30.45;;;17.58;;
22557;SDS011;11445;53.816;8.902;2022-09-09T03:43:20;24.50;;;17.50;;
22557;SDS011;11445;53.816;8.902;2022-09-09T03:45:47;24.60;;;17.42;;
22557;SDS011;11445;53.816;8.902;2022-09-09T03:48:15;28.33;;;18.13;;
22557;SDS011;11445;53.816;8.902;2022-09-09T03:50:47;24.20;;;16.33;;
22557;SDS011;11445;53.816;8.902;2022-09-09T03:53:16;30.20;;;17.38;;
22557;SDS011;11445;53.816;8.902;2022-09-09T03:55:45;26.10;;;16.70;;
22557;SDS011;11445;53.816;8.902;2022-09-09T03:58:12;30.17;;;17.67;;
22557;SDS011;11445;53.816;8.902;2022-09-09T04:00:40;24.55;;;16.85;;
22557;SDS011;11445;53.816;8.902;2022-09-09T04:03:10;25.98;;;16.17;;
22557;SDS011;11445;53.816;8.902;2022-09-09T04:05:38;21.70;;;15.35;;
22557;SDS011;11445;53.816;8.902;2022-09-09T04:08:08;22.77;;;15.88;;
22557;SDS011;11445;53.816;8.902;2022-09-09T04:10:36;24.17;;;16.70;;
22557;SDS011;11445;53.816;8.902;2022-09-09T04:13:03;23.98;;;16.02;;
22557;SDS011;11445;53.816;8.902;2022-09-09T04:15:30;21.48;;;15.13;;
22557;SDS011;11445;53.816;8.902;2022-09-09T04:17:58;25.00;;;16.15;;
22557;SDS011;11445;53.816;8.902;2022-09-09T04:20:25;25.30;;;17.38;;
22557;SDS011;11445;53.816;8.902;2022-09-09T04:22:52;26.50;;;16.30;;
22557;SDS011;11445;53.816;8.902;2022-09-09T04:25:21;24.83;;;16.85;;
22557;SDS011;11445;53.816;8.902;2022-09-09T04:27:52;31.67;;;18.55;;
22557;SDS011;11445;53.816;8.902;2022-09-09T04:30:19;24.73;;;17.95;;
22557;SDS011;11445;53.816;8.902;2022-09-09T04:32:47;24.45;;;17.00;;
22557;SDS011;11445;53.816;8.902;2022-09-09T04:35:14;29.13;;;17.90;;
22557;SDS011;11445;53.816;8.902;2022-09-09T04:37:41;28.05;;;18.90;;
22557;SDS011;11445;53.816;8.902;2022-09-09T04:40:08;31.25;;;18.42;;
22557;SDS011;11445;53.816;8.902;2022-09-09T04:42:37;27.25;;;18.23;;
22557;SDS011;11445;53.816;8.902;2022-09-09T04:45:05;33.22;;;19.20;;
22557;SDS011;11445;53.816;8.902;2022-09-09T04:47:33;35.17;;;19.60;;
22557;SDS011;11445;53.816;8.902;2022-09-09T04:50:01;33.25;;;17.63;;
22557;SDS011;11445;53.816;8.902;2022-09-09T04:52:28;35.20;;;18.98;;
22557;SDS011;11445;53.816;8.902;2022-09-09T04:54:55;28.63;;;19.40;;
22557;SDS011;11445;53.816;8.902;2022-09-09T04:57:22;32.92;;;19.92;;
22557;SDS011;11445;53.816;8.902;2022-09-09T04:59:50;29.85;;;15.57;;
22557;SDS011;11445;53.816;8.902;2022-09-09T05:02:17;30.10;;;19.20;;
22557;SDS011;11445;53.816;8.902;2022-09-09T05:04:44;33.20;;;19.77;;
22557;SDS011;11445;53.816;8.902;2022-09-09T05:07:11;33.80;;;20.55;;
22557;SDS011;11445;53.816;8.902;2022-09-09T05:09:39;34.38;;;20.75;;
22557;SDS011;11445;53.816;8.902;2022-09-09T05:12:06;33.80;;;20.55;;
22557;SDS011;11445;53.816;8.902;2022-09-09T05:14:33;37.17;;;20.98;;
22557;SDS011;11445;53.816;8.902;2022-09-09T05:17:02;32.25;;;19.30;;
22557;SDS011;11445;53.816;8.902;2022-09-09T05:19:30;31.33;;;20.00;;
22557;SDS011;11445;53.816;8.902;2022-09-09T05:21:56;35.50;;;20.48;;
22557;SDS011;11445;53.816;8.902;2022-09-09T05:24:23;32.67;;;19.38;;
22557;SDS011;11445;53.816;8.902;2022-09-09T05:26:51;35.45;;;19.92;;
22557;SDS011;11445;53.816;8.902;2022-09-09T05:29:18;33.47;;;20.45;;
22557;SDS011;11445;53.816;8.902;2022-09-09T05:31:45;37.70;;;19.35;;
22557;SDS011;11445;53.816;8.902;2022-09-09T05:34:13;27.70;;;18.55;;
22557;SDS011;11445;53.816;8.902;2022-09-09T05:36:40;31.38;;;19.55;;
22557;SDS011;11445;53.816;8.902;2022-09-09T05:39:07;30.10;;;18.55;;
22557;SDS011;11445;53.816;8.902;2022-09-09T05:41:34;39.08;;;20.08;;
22557;SDS011;11445;53.816;8.902;2022-09-09T05:44:01;35.05;;;20.35;;
22557;SDS011;11445;53.816;8.902;2022-09-09T05:46:28;35.53;;;17.58;;
22557;SDS011;11445;53.816;8.902;2022-09-09T05:48:55;32.50;;;17.80;;
22557;SDS011;11445;53.816;8.902;2022-09-09T05:51:25;29.65;;;19.15;;
22557;SDS011;11445;53.816;8.902;2022-09-09T05:53:55;28.85;;;19.15;;
22557;SDS011;11445;53.816;8.902;2022-09-09T05:56:23;33.28;;;17.90;;
22557;SDS011;11445;53.816;8.902;2022-09-09T05:58:52;26.30;;;17.27;;
22557;SDS011;11445;53.816;8.902;2022-09-09T06:01:20;26.20;;;17.63;;
22557;SDS011;11445;53.816;8.902;2022-09-09T06:03:49;29.73;;;18.67;;
22557;SDS011;11445;53.816;8.902;2022-09-09T06:06:17;27.60;;;16.35;;
22557;SDS011;11445;53.816;8.902;2022-09-09T06:08:48;32.55;;;17.15;;
22557;SDS011;11445;53.816;8.902;2022-09-09T06:11:18;27.60;;;17.15;;
22557;SDS011;11445;53.816;8.902;2022-09-09T06:13:47;29.90;;;17.48;;
22557;SDS011;11445;53.816;8.902;2022-09-09T06:16:17;27.23;;;17.83;;
22557;SDS011;11445;53.816;8.902;2022-09-09T06:18:45;28.30;;;17.90;;
22557;SDS011;11445;53.816;8.902;2022-09-09T06:21:15;24.05;;;16.45;;
22557;SDS011;11445;53.816;8.902;2022-09-09T06:23:43;23.85;;;16.45;;
22557;SDS011;11445;53.816;8.902;2022-09-09T06:26:12;27.67;;;17.92;;
22557;SDS011;11445;53.816;8.902;2022-09-09T06:28:41;29.38;;;17.55;;
22557;SDS011;11445;53.816;8.902;2022-09-09T06:31:09;29.80;;;17.00;;
22557;SDS011;11445;53.816;8.902;2022-09-09T06:33:38;25.75;;;16.63;;
22557;SDS011;11445;53.816;8.902;2022-09-09T06:36:07;35.42;;;17.00;;
22557;SDS011;11445;53.816;8.902;2022-09-09T06:38:37;25.50;;;16.25;;
22557;SDS011;11445;53.816;8.902;2022-09-09T06:41:04;33.08;;;17.45;;
22557;SDS011;11445;53.816;8.902;2022-09-09T06:43:33;27.08;;;16.13;;
22557;SDS011;11445;53.816;8.902;2022-09-09T06:46:00;29.67;;;17.13;;
22557;SDS011;11445;53.816;8.902;2022-09-09T06:48:29;29.00;;;15.98;;
22557;SDS011;11445;53.816;8.902;2022-09-09T06:51:01;25.00;;;16.13;;
22557;SDS011;11445;53.816;8.902;2022-09-09T06:53:29;22.67;;;14.50;;
22557;SDS011;11445;53.816;8.902;2022-09-09T06:55:58;27.08;;;15.50;;
22557;SDS011;11445;53.816;8.902;2022-09-09T06:58:26;21.55;;;15.32;;
22557;SDS011;11445;53.816;8.902;2022-09-09T07:01:02;26.00;;;14.15;;
22557;SDS011;11445;53.816;8.902;2022-09-09T07:03:30;24.25;;;15.10;;
22557;SDS011;11445;53.816;8.902;2022-09-09T07:05:57;23.67;;;14.50;;
22557;SDS011;11445;53.816;8.902;2022-09-09T07:08:24;26.98;;;15.38;;
22557;SDS011;11445;53.816;8.902;2022-09-09T07:10:51;23.00;;;15.10;;
22557;SDS011;11445;53.816;8.902;2022-09-09T07:13:19;24.13;;;15.15;;
22557;SDS011;11445;53.816;8.902;2022-09-09T07:15:49;27.70;;;15.93;;
22557;SDS011;11445;53.816;8.902;2022-09-09T07:18:18;29.95;;;16.13;;
22557;SDS011;11445;53.816;8.902;2022-09-09T07:20:52;23.55;;;15.50;;
22557;SDS011;11445;53.816;8.902;2022-09-09T07:23:20;25.65;;;15.52;;
22557;SDS011;11445;53.816;8.902;2022-09-09T07:25:47;29.52;;;14.82;;
22557;SDS011;11445;53.816;8.902;2022-09-09T07:28:15;25.98;;;15.85;;
22557;SDS011;11445;53.816;8.902;2022-09-09T07:30:42;20.83;;;14.95;;
22557;SDS011;11445;53.816;8.902;2022-09-09T07:33:09;23.08;;;15.88;;
22557;SDS011;11445;53.816;8.902;2022-09-09T07:35:37;24.45;;;15.63;;
22557;SDS011;11445;53.816;8.902;2022-09-09T07:38:04;21.45;;;15.02;;
22557;SDS011;11445;53.816;8.902;2022-09-09T07:40:32;25.30;;;14.98;;
22557;SDS011;11445;53.816;8.902;2022-09-09T07:42:59;24.58;;;15.35;;
22557;SDS011;11445;53.816;8.902;2022-09-09T07:45:27;21.25;;;14.98;;
22557;SDS011;11445;53.816;8.902;2022-09-09T07:47:54;21.27;;;14.80;;
22557;SDS011;11445;53.816;8.902;2022-09-09T07:50:22;24.38;;;14.82;;
22557;SDS011;11445;53.816;8.902;2022-09-09T07:52:50;22.90;;;14.02;;
22557;SDS011;11445;53.816;8.902;2022-09-09T07:55:18;20.38;;;13.77;;
22557;SDS011;11445;53.816;8.902;2022-09-09T07:57:46;22.35;;;13.75;;
22557;SDS011;11445;53.816;8.902;2022-09-09T08:00:13;23.00;;;14.73;;
22557;SDS011;11445;53.816;8.902;2022-09-09T08:02:41;19.83;;;13.57;;
22557;SDS011;11445;53.816;8.902;2022-09-09T08:05:08;19.73;;;13.40;;
22557;SDS011;11445;53.816;8.902;2022-09-09T08:07:35;19.23;;;12.73;;
22557;SDS011;11445;53.816;8.902;2022-09-09T08:10:04;15.75;;;11.80;;
22557;SDS011;11445;53.816;8.902;2022-09-09T08:12:31;16.58;;;12.18;;
22557;SDS011;11445;53.816;8.902;2022-09-09T08:14:59;16.83;;;11.93;;
22557;SDS011;11445;53.816;8.902;2022-09-09T08:17:26;17.15;;;10.57;;
22557;SDS011;11445;53.816;8.902;2022-09-09T08:19:53;16.48;;;9.68;;
22557;SDS011;11445;53.816;8.902;2022-09-09T08:22:20;12.52;;;8.60;;
22557;SDS011;11445;53.816;8.902;2022-09-09T08:24:47;13.77;;;8.23;;
22557;SDS011;11445;53.816;8.902;2022-09-09T08:27:15;12.45;;;8.38;;
22557;SDS011;11445;53.816;8.902;2022-09-09T08:29:42;11.82;;;7.88;;
22557;SDS011;11445;53.816;8.902;2022-09-09T08:32:09;15.77;;;8.05;;
22557;SDS011;11445;53.816;8.902;2022-09-09T08:34:36;9.32;;;7.28;;
22557;SDS011;11445;53.816;8.902;2022-09-09T08:37:03;10.52;;;7.32;;
22557;SDS011;11445;53.816;8.902;2022-09-09T08:39:30;10.13;;;6.60;;
22557;SDS011;11445;53.816;8.902;2022-09-09T08:42:13;9.68;;;6.32;;
22557;SDS011;11445;53.816;8.902;2022-09-09T08:45:02;7.55;;;5.75;;
22557;SDS011;11445;53.816;8.902;2022-09-09T08:47:48;13.25;;;5.90;;
22557;SDS011;11445;53.816;8.902;2022-09-09T08:50:23;10.93;;;5.50;;
22557;SDS011;11445;53.816;8.902;2022-09-09T08:52:57;9.35;;;5.80;;
22557;SDS011;11445;53.816;8.902;2022-09-09T08:55:31;10.45;;;5.00;;
22557;SDS011;11445;53.816;8.902;2022-09-09T08:58:09;8.70;;;4.90;;
22557;SDS011;11445;53.816;8.902;2022-09-09T09:00:41;7.22;;;5.35;;
22557;SDS011;11445;53.816;8.902;2022-09-09T09:03:19;11.80;;;5.32;;
22557;SDS011;11445;53.816;8.902;2022-09-09T09:05:57;10.73;;;5.53;;
22557;SDS011;11445;53.816;8.902;2022-09-09T09:08:33;9.70;;;5.60;;
22557;SDS011;11445;53.816;8.902;2022-09-09T09:11:07;9.68;;;5.00;;
22557;SDS011;11445;53.816;8.902;2022-09-09T09:13:37;8.23;;;5.13;;
22557;SDS011;11445;53.816;8.902;2022-09-09T09:16:10;7.38;;;4.78;;
22557;SDS011;11445;53.816;8.902;2022-09-09T09:18:44;8.85;;;4.40;;
22557;SDS011;11445;53.816;8.902;2022-09-09T09:21:12;9.75;;;4.80;;
22557;SDS011;11445;53.816;8.902;2022-09-09T09:23:45;4.43;;;4.00;;
22557;SDS011;11445;53.816;8.902;2022-09-09T09:26:20;5.70;;;3.90;;
22557;SDS011;11445;53.816;8.902;2022-09-09T09:28:51;4.53;;;3.92;;
22557;SDS011;11445;53.816;8.902;2022-09-09T09:31:22;6.33;;;3.63;;
22557;SDS011;11445;53.816;8.902;2022-09-09T09:33:52;6.22;;;3.33;;
22557;SDS011;11445;53.816;8.902;2022-09-09T09:36:20;6.63;;;3.45;;
22557;SDS011;11445;53.816;8.902;2022-09-09T09:38:54;7.05;;;3.38;;
22557;SDS011;11445;53.816;8.902;2022-09-09T09:41:31;8.45;;;3.05;;
22557;SDS011;11445;53.816;8.902;2022-09-09T09:44:02;3.88;;;2.72;;
22557;SDS011;11445;53.816;8.902;2022-09-09T09:46:29;7.93;;;2.90;;
22557;SDS011;11445;53.816;8.902;2022-09-09T09:48:58;5.72;;;2.72;;
22557;SDS011;11445;53.816;8.902;2022-09-09T09:51:26;5.32;;;2.60;;
22557;SDS011;11445;53.816;8.902;2022-09-09T09:53:54;4.47;;;2.55;;
22557;SDS011;11445;53.816;8.902;2022-09-09T09:56:35;3.22;;;2.13;;
22557;SDS011;11445;53.816;8.902;2022-09-09T09:59:04;2.45;;;1.65;;
22557;SDS011;11445;53.816;8.902;2022-09-09T10:01:32;5.78;;;2.22;;
22557;SDS011;11445;53.816;8.902;2022-09-09T10:04:00;2.78;;;1.70;;
22557;SDS011;11445;53.816;8.902;2022-09-09T10:06:31;2.88;;;1.73;;
22557;SDS011;11445;53.816;8.902;2022-09-09T10:08:59;3.80;;;1.58;;
22557;SDS011;11445;53.816;8.902;2022-09-09T10:11:30;3.10;;;1.20;;
22557;SDS011;11445;53.816;8.902;2022-09-09T10:14:14;2.65;;;1.38;;
22557;SDS011;11445;53.816;8.902;2022-09-09T10:16:59;1.88;;;1.30;;
22557;SDS011;11445;53.816;8.902;2022-09-09T10:19:38;5.63;;;1.80;;
22557;SDS011;11445;53.816;8.902;2022-09-09T10:22:19;3.53;;;1.63;;
22557;SDS011;11445;53.816;8.902;2022-09-09T10:25:05;11.52;;;2.10;;
22557;SDS011;11445;53.816;8.902;2022-09-09T10:28:00;4.95;;;2.08;;
22557;SDS011;11445;53.816;8.902;2022-09-09T10:30:52;1.88;;;1.67;;
22557;SDS011;11445;53.816;8.902;2022-09-09T10:33:32;6.05;;;1.48;;
22557;SDS011;11445;53.816;8.902;2022-09-09T10:36:08;3.22;;;1.50;;
22557;SDS011;11445;53.816;8.902;2022-09-09T10:38:40;4.43;;;1.47;;
22557;SDS011;11445;53.816;8.902;2022-09-09T10:41:23;8.05;;;1.60;;
22557;SDS011;11445;53.816;8.902;2022-09-09T10:47:00;3.55;;;1.33;;
22557;SDS011;11445;53.816;8.902;2022-09-09T10:49:52;2.65;;;1.00;;
22557;SDS011;11445;53.816;8.902;2022-09-09T10:52:39;3.45;;;1.27;;
22557;SDS011;11445;53.816;8.902;2022-09-09T10:55:14;2.53;;;1.08;;
22557;SDS011;11445;53.816;8.902;2022-09-09T10:57:45;2.22;;;1.23;;
22557;SDS011;11445;53.816;8.902;2022-09-09T11:00:15;1.83;;;1.13;;
22557;SDS011;11445;53.816;8.902;2022-09-09T11:02:46;2.17;;;1.00;;
22557;SDS011;11445;53.816;8.902;2022-09-09T11:05:18;4.13;;;1.88;;
22557;SDS011;11445;53.816;8.902;2022-09-09T11:07:48;1.67;;;1.55;;
22557;SDS011;11445;53.816;8.902;2022-09-09T11:10:22;5.43;;;2.22;;
22557;SDS011;11445;53.816;8.902;2022-09-09T11:12:53;2.35;;;2.10;;
22557;SDS011;11445;53.816;8.902;2022-09-09T11:15:28;6.05;;;2.15;;
22557;SDS011;11445;53.816;8.902;2022-09-09T11:18:01;3.70;;;1.30;;
22557;SDS011;11445;53.816;8.902;2022-09-09T11:20:31;3.28;;;1.33;;
22557;SDS011;11445;53.816;8.902;2022-09-09T11:22:59;3.95;;;1.77;;
22557;SDS011;11445;53.816;8.902;2022-09-09T11:25:29;6.40;;;1.50;;
22557;SDS011;11445;53.816;8.902;2022-09-09T11:28:08;4.20;;;1.90;;
22557;SDS011;11445;53.816;8.902;2022-09-09T11:30:49;2.10;;;1.77;;
22557;SDS011;11445;53.816;8.902;2022-09-09T11:33:46;4.28;;;2.05;;
22557;SDS011;11445;53.816;8.902;2022-09-09T11:36:30;3.33;;;1.90;;
22557;SDS011;11445;53.816;8.902;2022-09-09T11:39:14;4.50;;;1.80;;
22557;SDS011;11445;53.816;8.902;2022-09-09T11:41:55;2.33;;;1.75;;
22557;SDS011;11445;53.816;8.902;2022-09-09T11:44:33;3.05;;;1.83;;
22557;SDS011;11445;53.816;8.902;2022-09-09T11:47:00;2.92;;;2.38;;
22557;SDS011;11445;53.816;8.902;2022-09-09T11:49:28;2.72;;;2.17;;
22557;SDS011;11445;53.816;8.902;2022-09-09T11:52:10;3.05;;;2.85;;
22557;SDS011;11445;53.816;8.902;2022-09-09T11:54:44;4.43;;;3.43;;
22557;SDS011;11445;53.816;8.902;2022-09-09T11:57:17;4.30;;;3.03;;
22557;SDS011;11445;53.816;8.902;2022-09-09T11:59:53;3.80;;;3.50;;
22557;SDS011;11445;53.816;8.902;2022-09-09T12:02:22;5.88;;;3.15;;
22557;SDS011;11445;53.816;8.902;2022-09-09T12:04:57;3.75;;;3.40;;
22557;SDS011;11445;53.816;8.902;2022-09-09T12:07:32;4.20;;;3.80;;
22557;SDS011;11445;53.816;8.902;2022-09-09T12:10:03;5.28;;;3.65;;
22557;SDS011;11445;53.816;8.902;2022-09-09T12:12:33;7.15;;;4.57;;
22557;SDS011;11445;53.816;8.902;2022-09-09T12:15:17;6.95;;;4.30;;
22557;SDS011;11445;53.816;8.902;2022-09-09T12:17:51;10.43;;;4.57;;
22557;SDS011;11445;53.816;8.902;2022-09-09T12:20:21;5.65;;;4.53;;
22557;SDS011;11445;53.816;8.902;2022-09-09T12:23:02;6.93;;;5.25;;
22557;SDS011;11445;53.816;8.902;2022-09-09T12:25:46;7.28;;;5.43;;
22557;SDS011;11445;53.816;8.902;2022-09-09T12:28:26;11.07;;;5.72;;
22557;SDS011;11445;53.816;8.902;2022-09-09T12:31:04;6.47;;;5.05;;
22557;SDS011;11445;53.816;8.902;2022-09-09T12:33:39;6.13;;;5.40;;
22557;SDS011;11445;53.816;8.902;2022-09-09T12:36:11;5.70;;;5.20;;
22557;SDS011;11445;53.816;8.902;2022-09-09T12:38:42;7.85;;;5.00;;
22557;SDS011;11445;53.816;8.902;2022-09-09T12:41:17;6.55;;;4.93;;
22557;SDS011;11445;53.816;8.902;2022-09-09T12:43:46;6.97;;;4.50;;
22557;SDS011;11445;53.816;8.902;2022-09-09T12:46:17;7.60;;;4.93;;
22557;SDS011;11445;53.816;8.902;2022-09-09T12:48:51;5.88;;;4.45;;
22557;SDS011;11445;53.816;8.902;2022-09-09T12:51:23;6.63;;;4.50;;
22557;SDS011;11445;53.816;8.902;2022-09-09T12:56:21;6.63;;;4.45;;
22557;SDS011;11445;53.816;8.902;2022-09-09T12:58:52;9.07;;;4.45;;
22557;SDS011;11445;53.816;8.902;2022-09-09T13:01:21;9.27;;;4.00;;
22557;SDS011;11445;53.816;8.902;2022-09-09T13:03:49;4.80;;;4.00;;
22557;SDS011;11445;53.816;8.902;2022-09-09T13:06:18;6.07;;;3.13;;
22557;SDS011;11445;53.816;8.902;2022-09-09T13:08:49;6.43;;;3.70;;
22557;SDS011;11445;53.816;8.902;2022-09-09T13:11:17;6.40;;;3.72;;
22557;SDS011;11445;53.816;8.902;2022-09-09T13:13:50;5.65;;;3.65;;
22557;SDS011;11445;53.816;8.902;2022-09-09T13:16:19;6.15;;;3.50;;
22557;SDS011;11445;53.816;8.902;2022-09-09T13:18:49;6.38;;;3.47;;
22557;SDS011;11445;53.816;8.902;2022-09-09T13:21:17;4.97;;;3.90;;
22557;SDS011;11445;53.816;8.902;2022-09-09T13:23:49;7.20;;;3.40;;
22557;SDS011;11445;53.816;8.902;2022-09-09T13:26:21;8.55;;;3.72;;
22557;SDS011;11445;53.816;8.902;2022-09-09T13:31:21;13.15;;;4.78;;
22557;SDS011;11445;53.816;8.902;2022-09-09T13:33:52;6.97;;;4.63;;
22557;SDS011;11445;53.816;8.902;2022-09-09T13:36:27;8.75;;;4.50;;
22557;SDS011;11445;53.816;8.902;2022-09-09T13:38:58;9.88;;;3.70;;
22557;SDS011;11445;53.816;8.902;2022-09-09T13:41:28;11.00;;;3.22;;
22557;SDS011;11445;53.816;8.902;2022-09-09T13:43:58;7.25;;;2.90;;
22557;SDS011;11445;53.816;8.902;2022-09-09T13:46:31;5.43;;;2.70;;
22557;SDS011;11445;53.816;8.902;2022-09-09T13:49:01;3.00;;;2.40;;
22557;SDS011;11445;53.816;8.902;2022-09-09T13:51:45;3.85;;;2.45;;
22557;SDS011;11445;53.816;8.902;2022-09-09T13:54:15;4.07;;;2.80;;
22557;SDS011;11445;53.816;8.902;2022-09-09T13:56:44;5.18;;;3.00;;
22557;SDS011;11445;53.816;8.902;2022-09-09T13:59:12;7.10;;;3.20;;
22557;SDS011;11445;53.816;8.902;2022-09-09T14:01:40;6.68;;;3.45;;
22557;SDS011;11445;53.816;8.902;2022-09-09T14:04:07;4.68;;;3.55;;
22557;SDS011;11445;53.816;8.902;2022-09-09T14:06:35;8.18;;;3.65;;
22557;SDS011;11445;53.816;8.902;2022-09-09T14:09:04;7.47;;;4.05;;
22557;SDS011;11445;53.816;8.902;2022-09-09T14:11:33;5.75;;;3.53;;
22557;SDS011;11445;53.816;8.902;2022-09-09T14:14:00;6.82;;;3.75;;
22557;SDS011;11445;53.816;8.902;2022-09-09T14:16:27;6.20;;;3.40;;
22557;SDS011;11445;53.816;8.902;2022-09-09T14:18:55;7.72;;;2.70;;
22557;SDS011;11445;53.816;8.902;2022-09-09T14:21:22;4.82;;;2.63;;
22557;SDS011;11445;53.816;8.902;2022-09-09T14:23:49;3.95;;;2.58;;
22557;SDS011;11445;53.816;8.902;2022-09-09T14:26:17;4.32;;;2.85;;
22557;SDS011;11445;53.816;8.902;2022-09-09T14:28:47;2.97;;;2.72;;
22557;SDS011;11445;53.816;8.902;2022-09-09T14:31:15;5.60;;;3.20;;
22557;SDS011;11445;53.816;8.902;2022-09-09T14:33:44;9.10;;;3.03;;
22557;SDS011;11445;53.816;8.902;2022-09-09T14:36:12;2.78;;;2.50;;
22557;SDS011;11445;53.816;8.902;2022-09-09T14:38:40;8.05;;;3.13;;
22557;SDS011;11445;53.816;8.902;2022-09-09T14:41:07;13.73;;;3.10;;
22557;SDS011;11445;53.816;8.902;2022-09-09T14:43:37;7.75;;;1.90;;
22557;SDS011;11445;53.816;8.902;2022-09-09T14:46:06;12.73;;;2.95;;
22557;SDS011;11445;53.816;8.902;2022-09-09T14:48:33;2.83;;;1.58;;
22557;SDS011;11445;53.816;8.902;2022-09-09T14:51:10;7.47;;;1.98;;
22557;SDS011;11445;53.816;8.902;2022-09-09T14:53:39;7.07;;;2.67;;
22557;SDS011;11445;53.816;8.902;2022-09-09T14:56:06;8.50;;;3.42;;
22557;SDS011;11445;53.816;8.902;2022-09-09T14:58:35;6.53;;;3.28;;
22557;SDS011;11445;53.816;8.902;2022-09-09T15:01:03;6.75;;;2.83;;
22557;SDS011;11445;53.816;8.902;2022-09-09T15:03:35;7.18;;;3.70;;
22557;SDS011;11445;53.816;8.902;2022-09-09T15:06:05;5.97;;;3.60;;
22557;SDS011;11445;53.816;8.902;2022-09-09T15:08:34;7.47;;;4.20;;